Time;durP1;ratioP1;P1;durP2;ratioP2;P2;SDS_P1;SDS_P2;PMS_P1;PMS_P2;Temp;Humidity;BMP_temperature;BMP_pressure;BME280_temperature;BME280_humidity;BME280_pressure;Samples;Min_cycle;Max_cycle;Signal;HPM_P1;HPM_P2
2021/06/26 00:02:05;;;;;;;16.40;12.05;;;;;;;17.65;100.00;101069.34;3583957;40;20206;-49
2021/06/26 00:04:32;;;;;;;13.75;12.27;;;;;;;17.79;100.00;101071.16;3584287;40;20060;-48
2021/06/26 00:07:00;;;;;;;16.38;12.85;;;;;;;17.64;100.00;101072.78;3583861;40;20048;-50
2021/06/26 00:09:27;;;;;;;16.30;13.55;;;;;;;17.41;100.00;101067.53;3579679;40;20029;-53
2021/06/26 00:11:54;;;;;;;14.30;12.50;;;;;;;17.36;100.00;101058.91;3577508;40;20085;-47
2021/06/26 00:14:22;;;;;;;13.98;12.68;;;;;;;17.39;100.00;101058.91;3577142;40;20295;-49
2021/06/26 00:16:50;;;;;;;14.73;12.80;;;;;;;17.52;100.00;101056.38;3577088;40;20057;-53
2021/06/26 00:19:17;;;;;;;14.13;12.23;;;;;;;17.78;100.00;101053.84;3577396;40;20369;-53
2021/06/26 00:21:44;;;;;;;15.10;13.50;;;;;;;17.51;100.00;101059.78;3577038;40;20085;-49
2021/06/26 00:24:11;;;;;;;15.60;12.65;;;;;;;17.42;100.00;101053.72;3577649;40;20052;-50
2021/06/26 00:26:38;;;;;;;13.48;12.10;;;;;;;17.72;100.00;101061.59;3576792;40;20084;-48
2021/06/26 00:29:05;;;;;;;13.45;12.05;;;;;;;17.88;100.00;101062.50;3577671;40;20246;-50
2021/06/26 00:31:32;;;;;;;13.45;12.07;;;;;;;17.68;100.00;101065.03;3576612;40;20056;-54
2021/06/26 00:33:59;;;;;;;13.00;11.68;;;;;;;17.61;100.00;101070.19;3576298;40;20052;-46
2021/06/26 00:36:26;;;;;;;12.55;11.07;;;;;;;18.06;100.00;101069.44;3584027;40;20081;-49
2021/06/26 00:38:53;;;;;;;12.65;11.07;;;;;;;17.71;100.00;101071.97;3583715;40;20233;-50
2021/06/26 00:41:20;;;;;;;12.40;11.10;;;;;;;17.62;100.00;101079.72;3584030;40;20130;-50
2021/06/26 00:43:47;;;;;;;13.85;12.27;;;;;;;17.40;100.00;101078.75;3583611;40;20059;-46
2021/06/26 00:46:15;;;;;;;12.90;11.50;;;;;;;17.38;100.00;101075.28;3584208;40;20064;-49
2021/06/26 00:48:43;;;;;;;13.23;11.55;;;;;;;17.38;100.00;101071.00;3583352;40;20402;-52
2021/06/26 00:51:11;;;;;;;15.30;12.85;;;;;;;17.32;100.00;101076.13;3583863;40;20082;-49
2021/06/26 00:53:38;;;;;;;14.77;13.30;;;;;;;17.30;100.00;101070.09;3583874;40;20054;-52
2021/06/26 00:56:08;;;;;;;14.13;12.63;;;;;;;17.21;100.00;101065.75;3583817;40;20088;-51
2021/06/26 00:58:35;;;;;;;14.93;12.88;;;;;;;17.20;100.00;101076.09;3583654;40;20417;-46
2021/06/26 01:01:02;;;;;;;13.07;11.68;;;;;;;17.36;100.00;101075.28;3583653;40;20067;-50
2021/06/26 01:03:29;;;;;;;19.17;12.07;;;;;;;17.57;100.00;101071.94;3580910;40;20045;-53
2021/06/26 01:05:56;;;;;;;13.85;12.35;;;;;;;17.33;100.00;101069.22;3583924;40;20088;-48
2021/06/26 01:08:25;;;;;;;13.65;12.35;;;;;;;17.22;100.00;101072.63;3584075;40;20358;-50
2021/06/26 01:10:52;;;;;;;12.85;11.55;;;;;;;17.31;100.00;101074.41;3583889;40;20080;-54
2021/06/26 01:13:19;;;;;;;12.88;11.60;;;;;;;17.31;100.00;101075.28;3583819;40;20058;-49
2021/06/26 01:15:49;;;;;;;13.02;11.50;;;;;;;17.60;100.00;101071.06;3583659;40;20053;-48
2021/06/26 01:18:16;;;;;;;12.65;11.35;;;;;;;17.46;100.00;101073.59;3583956;40;20398;-49
2021/06/26 01:20:44;;;;;;;13.32;11.85;;;;;;;17.24;100.00;101067.47;3583876;40;20075;-50
2021/06/26 01:23:14;;;;;;;12.68;11.07;;;;;;;17.55;100.00;101063.28;3583760;40;20119;-50
2021/06/26 01:25:41;;;;;;;13.38;12.02;;;;;;;17.29;100.00;101076.13;3583916;40;20088;-49
2021/06/26 01:28:08;;;;;;;12.60;11.20;;;;;;;17.42;100.00;101077.03;3582135;40;20139;-48
2021/06/26 01:30:36;;;;;;;13.82;11.93;;;;;;;17.01;100.00;101070.84;3583780;40;20046;-51
2021/06/26 01:33:05;;;;;;;15.95;12.45;;;;;;;16.74;100.00;101071.53;3583579;40;20342;-54
2021/06/26 01:35:34;;;;;;;13.48;12.18;;;;;;;16.88;100.00;101074.19;3583410;40;20475;-48
2021/06/26 01:38:05;;;;;;;14.18;12.68;;;;;;;17.21;100.00;101080.41;3583312;40;20072;-48
2021/06/26 01:40:32;;;;;;;13.70;12.25;;;;;;;17.05;100.00;101088.09;3580908;40;20088;-50
2021/06/26 01:43:00;;;;;;;13.18;11.90;;;;;;;16.76;100.00;101079.28;3583554;40;20102;-46
2021/06/26 01:45:27;;;;;;;14.40;12.90;;;;;;;16.69;100.00;101077.50;3583339;40;20052;-49
2021/06/26 01:47:59;;;;;;;12.85;11.55;;;;;;;16.66;100.00;101078.31;3583178;40;20123;-51
2021/06/26 01:50:28;;;;;;;14.95;12.18;;;;;;;16.70;100.00;101079.22;3583530;40;20068;-51
2021/06/26 01:52:57;;;;;;;12.75;11.48;;;;;;;16.71;100.00;101080.94;3583134;40;20427;-55
2021/06/26 01:55:24;;;;;;;13.43;12.02;;;;;;;16.63;100.00;101070.53;3583192;40;20072;-55
2021/06/26 01:57:52;;;;;;;14.30;11.65;;;;;;;16.62;100.00;101073.13;3583150;40;20048;-46
2021/06/26 02:00:21;;;;;;;15.63;12.63;;;;;;;16.38;100.00;101076.41;3583312;40;20353;-49
2021/06/26 02:02:49;;;;;;;15.13;13.38;;;;;;;16.21;100.00;101073.66;3583478;40;20418;-50
2021/06/26 02:05:18;;;;;;;14.30;12.70;;;;;;;16.38;100.00;101072.09;3583767;40;20060;-50
2021/06/26 02:07:46;;;;;;;13.82;12.45;;;;;;;16.44;100.00;101073.84;3583252;40;20450;-54
2021/06/26 02:10:13;;;;;;;15.52;13.93;;;;;;;16.25;100.00;101073.69;3583344;40;20056;-47
2021/06/26 02:12:42;;;;;;;15.55;13.95;;;;;;;16.11;100.00;101077.03;3583287;40;20052;-52
2021/06/26 02:15:09;;;;;;;16.60;14.88;;;;;;;16.04;100.00;101076.97;3582070;40;20099;-49
2021/06/26 02:17:36;;;;;;;17.20;15.10;;;;;;;15.95;100.00;101082.03;3583021;40;20076;-54
2021/06/26 02:20:05;;;;;;;16.58;14.85;;;;;;;15.90;100.00;101081.13;3583235;40;20076;-52
2021/06/26 02:22:33;;;;;;;15.85;14.02;;;;;;;15.98;100.00;101082.06;3583469;40;20103;-56
2021/06/26 02:25:04;;;;;;;15.85;14.13;;;;;;;15.98;100.00;101083.78;3583640;40;20084;-49
2021/06/26 02:27:32;;;;;;;16.35;14.30;;;;;;;15.82;100.00;101079.31;3581018;40;20095;-55
2021/06/26 02:29:59;;;;;;;19.13;15.70;;;;;;;15.68;100.00;101079.19;3583201;40;20125;-49
2021/06/26 02:32:26;;;;;;;16.65;15.05;;;;;;;15.65;100.00;101074.81;3582942;40;20056;-49
2021/06/26 02:34:54;;;;;;;19.13;14.82;;;;;;;15.65;100.00;101084.28;3583078;40;20442;-51
2021/06/26 02:37:21;;;;;;;15.65;13.90;;;;;;;15.62;100.00;101077.38;3582845;40;20096;-53
2021/06/26 02:39:49;;;;;;;18.38;14.27;;;;;;;15.59;100.00;101084.19;3583061;40;20092;-46
2021/06/26 02:42:16;;;;;;;17.08;14.35;;;;;;;15.51;100.00;101082.38;3583623;40;20064;-48
2021/06/26 02:44:43;;;;;;;17.80;16.05;;;;;;;15.43;100.00;101083.13;3583288;40;20123;-55
2021/06/26 02:47:10;;;;;;;17.42;15.48;;;;;;;15.40;100.00;101091.72;3582886;40;20040;-54
2021/06/26 02:49:37;;;;;;;16.83;14.90;;;;;;;15.85;100.00;101089.66;3584721;40;20052;-52
2021/06/26 02:52:07;;;;;;;17.20;14.98;;;;;;;15.98;100.00;101100.13;3584638;40;20054;-56
2021/06/26 02:54:35;;;;;;;18.67;15.63;;;;;;;15.58;100.00;101095.38;3584458;40;20092;-51
2021/06/26 02:57:02;;;;;;;16.63;14.73;;;;;;;15.61;100.00;101096.25;3584604;40;20060;-49
2021/06/26 02:59:29;;;;;;;16.58;14.80;;;;;;;15.47;100.00;101105.56;3581975;40;20062;-53
2021/06/26 03:01:56;;;;;;;19.52;15.63;;;;;;;15.30;100.00;101105.38;3584835;40;20052;-51
2021/06/26 03:04:23;;;;;;;17.65;15.77;;;;;;;15.29;100.00;101101.88;3584766;40;20053;-47
2021/06/26 03:06:50;;;;;;;17.38;15.55;;;;;;;15.17;100.00;101106.03;3584632;40;20550;-54
2021/06/26 03:09:17;;;;;;;18.88;16.77;;;;;;;14.99;100.00;101110.09;3584475;40;20056;-47
2021/06/26 03:11:44;;;;;;;20.75;17.38;;;;;;;14.86;100.00;101100.44;3584877;40;20076;-49
2021/06/26 03:14:11;;;;;;;21.73;17.77;;;;;;;14.85;100.00;101103.00;3584432;40;20473;-46
2021/06/26 03:16:43;;;;;;;22.95;19.20;;;;;;;14.85;100.00;101110.75;3584548;40;20808;-49
2021/06/26 03:19:14;;;;;;;21.90;18.23;;;;;;;14.82;100.00;101102.94;3583559;40;20506;-52
2021/06/26 03:21:42;;;;;;;20.77;17.13;;;;;;;14.82;100.00;101103.81;3584511;40;20060;-45
2021/06/26 03:24:09;;;;;;;20.00;17.75;;;;;;;14.79;100.00;101108.94;3583109;40;20488;-50
2021/06/26 03:26:36;;;;;;;21.33;19.00;;;;;;;14.80;100.00;101112.38;3584486;40;20310;-49
2021/06/26 03:29:04;;;;;;;19.65;17.58;;;;;;;14.91;100.00;101106.53;3584527;40;20081;-50
2021/06/26 03:31:31;;;;;;;18.98;17.08;;;;;;;15.20;100.00;101106.06;3584707;40;20394;-48
2021/06/26 03:33:59;;;;;;;19.83;15.95;;;;;;;15.03;100.00;101118.75;3584334;40;20150;-51
2021/06/26 03:36:26;;;;;;;23.55;17.67;;;;;;;14.83;100.00;101107.25;3583986;40;20350;-47
2021/06/26 03:38:53;;;;;;;21.60;18.42;;;;;;;14.77;100.00;101111.47;3584219;40;20079;-51
2021/06/26 03:41:26;;;;;;;25.92;19.50;;;;;;;14.74;100.00;101111.47;3583108;40;20035;-51
2021/06/26 03:43:55;;;;;;;24.98;20.33;;;;;;;14.73;100.00;101114.00;3584429;40;20064;-51
2021/06/26 03:46:22;;;;;;;29.08;19.38;;;;;;;14.79;100.00;101114.09;3584439;40;20902;-50
2021/06/26 03:48:49;;;;;;;22.40;18.35;;;;;;;15.39;100.00;101118.38;3584050;40;20062;-55
2021/06/26 03:51:17;;;;;;;20.90;18.33;;;;;;;15.20;100.00;101119.81;3584445;40;20096;-54
2021/06/26 03:53:46;;;;;;;22.17;18.55;;;;;;;15.05;100.00;101123.91;3584609;40;20057;-53
2021/06/26 03:56:14;;;;;;;20.80;18.58;;;;;;;14.98;100.00;101126.44;3584352;40;20089;-49
2021/06/26 03:58:41;;;;;;;21.15;17.80;;;;;;;14.97;100.00;101131.53;3583904;40;20076;-51
2021/06/26 04:01:08;;;;;;;21.92;18.50;;;;;;;14.98;100.00;101126.44;3582632;40;20047;-55
2021/06/26 04:03:35;;;;;;;22.42;19.58;;;;;;;14.93;100.00;101129.75;3584256;40;20092;-47
2021/06/26 04:06:02;;;;;;;25.35;21.35;;;;;;;14.97;100.00;101132.41;3584259;40;20398;-55
2021/06/26 04:08:29;;;;;;;24.13;18.38;;;;;;;15.23;100.00;101137.94;3581485;40;20107;-50
2021/06/26 04:10:56;;;;;;;22.58;18.77;;;;;;;15.59;100.00;101134.13;3584107;40;20262;-52
2021/06/26 04:13:23;;;;;;;23.63;18.73;;;;;;;15.75;100.00;101130.03;3584296;40;20159;-49
2021/06/26 04:15:50;;;;;;;21.73;17.73;;;;;;;15.56;100.00;101130.63;3584152;40;20100;-54
2021/06/26 04:18:17;;;;;;;23.95;19.50;;;;;;;15.68;100.00;101128.22;3584510;40;20056;-55
2021/06/26 04:20:44;;;;;;;22.02;18.88;;;;;;;15.66;100.00;101132.50;3584221;40;20045;-53
2021/06/26 04:23:11;;;;;;;21.08;18.85;;;;;;;15.63;100.00;101135.03;3584404;40;20097;-58
2021/06/26 04:25:38;;;;;;;21.63;18.73;;;;;;;15.71;100.00;101136.00;3584856;40;20120;-50
2021/06/26 04:28:10;;;;;;;19.33;17.20;;;;;;;15.88;100.00;101134.47;3584007;40;20104;-52
2021/06/26 04:30:38;;;;;;;19.40;17.40;;;;;;;16.24;100.00;101135.72;3584000;40;20202;-50
2021/06/26 04:33:05;;;;;;;19.02;17.02;;;;;;;16.26;100.00;101134.00;3583551;40;20049;-53
2021/06/26 04:35:32;;;;;;;18.83;16.90;;;;;;;16.81;100.00;101142.25;3583836;40;20058;-56
2021/06/26 04:37:59;;;;;;;19.50;17.40;;;;;;;16.32;100.00;101140.97;3584134;40;20054;-48
2021/06/26 04:40:26;;;;;;;21.25;18.88;;;;;;;16.18;100.00;101139.13;3583967;40;20084;-48
2021/06/26 04:42:54;;;;;;;21.80;19.50;;;;;;;16.16;100.00;101143.38;3584025;40;20064;-49
2021/06/26 04:45:22;;;;;;;23.13;17.70;;;;;;;16.41;100.00;101147.09;3583889;40;20064;-53
2021/06/26 04:47:50;;;;;;;19.63;17.50;;;;;;;16.55;100.00;101142.03;3584492;40;20303;-53
2021/06/26 04:50:17;;;;;;;25.10;19.27;;;;;;;16.52;100.00;101144.59;3581570;40;20040;-47
2021/06/26 04:55:12;;;;;;;21.23;18.40;;;;;;;16.65;100.00;101148.16;3593103;39;20106;-47
2021/06/26 04:57:40;;;;;;;20.90;18.77;;;;;;;16.69;100.00;101148.19;3593908;39;20098;-47
2021/06/26 05:00:08;;;;;;;22.08;19.67;;;;;;;16.79;100.00;101155.19;3593831;39;20048;-48
2021/06/26 05:02:35;;;;;;;20.45;18.05;;;;;;;17.42;100.00;101157.28;3593742;39;20089;-50
2021/06/26 05:05:03;;;;;;;20.50;18.33;;;;;;;17.21;100.00;101161.50;3589553;39;20054;-47
2021/06/26 05:07:31;;;;;;;21.63;19.33;;;;;;;17.31;100.00;101160.69;3585877;39;20040;-48
2021/06/26 05:09:58;;;;;;;21.17;18.92;;;;;;;17.60;100.00;101161.69;3589237;39;20575;-47
2021/06/26 05:12:25;;;;;;;21.45;18.90;;;;;;;17.76;100.00;101166.13;3588427;39;20326;-48
2021/06/26 05:14:52;;;;;;;22.65;20.27;;;;;;;17.92;100.00;101157.53;3590196;39;20060;-47
2021/06/26 05:17:20;;;;;;;20.23;18.13;;;;;;;18.29;100.00;101170.56;3590295;39;20059;-46
2021/06/26 05:19:49;;;;;;;23.38;19.27;;;;;;;17.98;100.00;101165.34;3588047;39;20040;-48
2021/06/26 05:22:16;;;;;;;22.20;18.63;;;;;;;17.81;100.00;101167.88;3589888;39;20068;-45
2021/06/26 05:24:43;;;;;;;22.13;18.60;;;;;;;17.92;100.00;101180.00;3590336;39;20095;-46
2021/06/26 05:27:10;;;;;;;24.38;20.30;;;;;;;17.89;100.00;101177.41;3589401;39;20048;-48
2021/06/26 05:29:42;;;;;;;22.17;19.67;;;;;;;18.12;100.00;101182.63;3590743;39;20432;-47
2021/06/26 05:32:09;;;;;;;23.42;19.77;;;;;;;18.11;100.00;101175.72;3588365;39;20047;-49
2021/06/26 05:34:40;;;;;;;22.27;18.90;;;;;;;18.19;100.00;101174.88;3590736;39;20063;-46
2021/06/26 05:37:07;;;;;;;26.20;19.10;;;;;;;18.45;99.90;101177.53;3589501;39;20071;-45
2021/06/26 05:39:34;;;;;;;25.08;18.85;;;;;;;18.33;99.48;101186.16;3590741;39;20052;-47
2021/06/26 05:42:02;;;;;;;20.52;18.23;;;;;;;18.61;98.21;101187.91;3589184;39;20052;-44
2021/06/26 05:44:29;;;;;;;18.50;16.10;;;;;;;18.63;96.94;101187.06;3585118;39;20072;-50
2021/06/26 05:46:56;;;;;;;19.10;16.98;;;;;;;18.71;94.93;101192.25;3589546;39;20051;-45
2021/06/26 05:49:23;;;;;;;19.88;17.77;;;;;;;18.85;94.35;101189.66;3590454;39;20365;-48
2021/06/26 05:51:50;;;;;;;20.77;18.00;;;;;;;18.77;93.72;101193.16;3590457;39;20111;-46
2021/06/26 05:54:17;;;;;;;19.65;17.55;;;;;;;18.77;95.04;101185.38;3590464;39;20054;-49
2021/06/26 05:56:45;;;;;;;19.33;17.30;;;;;;;18.85;93.53;101187.94;3589302;39;20060;-49
2021/06/26 05:59:13;;;;;;;18.23;15.98;;;;;;;19.04;94.19;101176.69;3589473;39;20140;-46
2021/06/26 06:01:40;;;;;;;19.20;16.98;;;;;;;19.03;93.00;101185.31;3590529;39;20085;-47
2021/06/26 06:04:08;;;;;;;17.63;15.85;;;;;;;19.21;91.48;101180.97;3588047;39;20117;-44
2021/06/26 06:06:36;;;;;;;17.33;15.38;;;;;;;19.39;92.61;101183.53;3590633;39;20075;-46
2021/06/26 06:09:05;;;;;;;17.80;15.98;;;;;;;19.71;90.18;101185.19;3589134;39;20143;-48
2021/06/26 06:11:33;;;;;;;17.45;15.30;;;;;;;19.96;88.05;101185.94;3585699;39;20036;-50
2021/06/26 06:14:00;;;;;;;17.67;15.77;;;;;;;20.09;84.09;101183.25;3589420;39;20071;-46
2021/06/26 06:16:27;;;;;;;16.92;14.30;;;;;;;20.21;83.80;101179.75;3588757;39;20064;-47
2021/06/26 06:18:54;;;;;;;15.02;13.55;;;;;;;20.18;83.92;101179.75;3588713;39;20066;-45
2021/06/26 06:21:21;;;;;;;14.73;12.98;;;;;;;20.55;81.16;101175.19;3589900;39;20166;-50
2021/06/26 06:23:48;;;;;;;14.05;12.23;;;;;;;20.38;84.15;101183.97;3590459;39;20107;-48
2021/06/26 06:26:15;;;;;;;14.23;12.18;;;;;;;20.56;85.58;101178.66;3589547;39;20341;-44
2021/06/26 06:28:42;;;;;;;14.65;12.93;;;;;;;19.99;81.78;101184.19;3590478;39;20430;-46
2021/06/26 06:31:09;;;;;;;14.23;12.70;;;;;;;20.45;81.85;101178.72;3587641;39;20084;-47
2021/06/26 06:33:36;;;;;;;12.90;11.55;;;;;;;20.76;83.82;101178.50;3590164;39;20076;-47
2021/06/26 06:36:07;;;;;;;12.00;10.80;;;;;;;21.22;80.95;101186.75;3589020;39;20060;-45
2021/06/26 06:38:35;;;;;;;11.25;10.25;;;;;;;21.69;77.03;101181.91;3588247;39;20064;-46
2021/06/26 06:41:03;;;;;;;12.07;10.88;;;;;;;21.85;78.79;101188.66;3588369;39;20052;-48
2021/06/26 06:43:30;;;;;;;11.65;10.55;;;;;;;21.78;76.76;101192.22;3585016;39;20080;-51
2021/06/26 06:45:57;;;;;;;11.20;10.05;;;;;;;22.10;74.10;101190.06;3589699;39;20067;-50
2021/06/26 06:48:24;;;;;;;11.13;9.77;;;;;;;22.53;71.47;101189.44;3584749;40;20509;-45
2021/06/26 06:50:51;;;;;;;10.50;9.23;;;;;;;22.41;73.19;101187.00;3583104;40;20076;-52
2021/06/26 06:53:18;;;;;;;11.45;9.15;;;;;;;22.42;72.77;101191.38;3583240;40;20092;-46
2021/06/26 06:55:50;;;;;;;8.90;7.93;;;;;;;22.63;70.76;101191.00;3583591;40;20081;-47
2021/06/26 06:58:20;;;;;;;8.75;7.85;;;;;;;22.78;66.33;101195.13;3583389;40;20084;-47
2021/06/26 07:00:48;;;;;;;9.43;8.43;;;;;;;22.00;69.05;101192.78;3591075;39;20048;-50
2021/06/26 07:03:15;;;;;;;9.40;7.95;;;;;;;22.58;69.76;101192.84;3592615;39;20350;-48
2021/06/26 07:05:42;;;;;;;9.50;8.60;;;;;;;22.42;65.15;101191.38;3592158;39;20425;-45
2021/06/26 07:08:09;;;;;;;9.20;8.20;;;;;;;22.57;64.61;101187.66;3592123;39;20112;-45
2021/06/26 07:10:36;;;;;;;8.27;7.47;;;;;;;22.97;64.27;101187.00;3590854;39;20089;-47
2021/06/26 07:13:03;;;;;;;7.88;7.10;;;;;;;23.37;65.26;101195.84;3587141;39;20059;-49
2021/06/26 07:15:31;;;;;;;7.95;7.25;;;;;;;23.55;62.15;101188.53;3587483;39;20056;-46
2021/06/26 07:18:00;;;;;;;8.85;6.93;;;;;;;24.03;64.35;101194.50;3586634;39;20094;-49
2021/06/26 07:20:27;;;;;;;8.35;7.10;;;;;;;24.15;61.89;101193.38;3587298;39;20063;-45
2021/06/26 07:22:55;;;;;;;7.07;6.38;;;;;;;24.02;61.35;101190.16;3586686;39;20088;-47
2021/06/26 07:25:23;;;;;;;7.20;6.50;;;;;;;23.76;63.00;101182.91;3582462;39;20357;-46
2021/06/26 07:27:50;;;;;;;10.52;6.53;;;;;;;24.36;59.03;101186.81;3572133;40;20113;-46
2021/06/26 07:30:18;;;;;;;6.72;6.13;;;;;;;24.09;58.18;101183.06;3573366;40;20073;-45
2021/06/26 07:32:46;;;;;;;6.20;5.53;;;;;;;24.01;56.84;101182.38;3573755;40;20056;-45
2021/06/26 07:35:14;;;;;;;6.40;5.80;;;;;;;24.35;56.49;101177.22;3575572;40;20065;-49
2021/06/26 07:37:42;;;;;;;6.72;6.10;;;;;;;24.72;56.04;101174.59;3581858;40;20088;-45
2021/06/26 07:40:11;;;;;;;6.70;5.80;;;;;;;24.96;52.80;101177.47;3585062;40;20458;-46
2021/06/26 07:42:38;;;;;;;6.57;5.65;;;;;;;25.22;51.94;101168.97;3577049;40;20064;-45
2021/06/26 07:45:06;;;;;;;7.32;5.57;;;;;;;25.01;53.88;101160.75;3583914;40;20068;-44
2021/06/26 07:47:34;;;;;;;9.77;6.00;;;;;;;25.35;52.46;101168.56;3577905;40;20076;-48
2021/06/26 07:50:01;;;;;;;7.97;6.25;;;;;;;25.69;52.33;101166.75;3582336;40;20458;-52
2021/06/26 07:52:28;;;;;;;6.80;6.10;;;;;;;25.98;52.74;101165.91;3584664;40;20458;-45
2021/06/26 07:54:56;;;;;;;6.95;6.25;;;;;;;26.23;50.51;101172.09;3583810;40;20051;-52
2021/06/26 07:57:23;;;;;;;6.65;6.00;;;;;;;26.38;50.68;101165.50;3576917;39;20359;-48
2021/06/26 07:59:49;;;;;;;7.57;6.88;;;;;;;25.89;47.49;101167.91;3584600;39;20044;-48
2021/06/26 08:02:17;;;;;;;6.90;6.30;;;;;;;26.55;48.52;101173.72;3584617;40;20406;-47
2021/06/26 08:04:44;;;;;;;8.82;6.32;;;;;;;26.12;49.57;101169.84;3583710;39;20049;-47
2021/06/26 08:07:11;;;;;;;6.80;6.20;;;;;;;26.00;48.31;101170.19;3582832;39;20297;-45
2021/06/26 08:09:38;;;;;;;7.07;6.47;;;;;;;25.63;47.82;101167.78;3583796;40;20056;-45
2021/06/26 08:12:05;;;;;;;7.68;6.85;;;;;;;24.68;52.97;101159.84;3584376;40;20112;-45
2021/06/26 08:14:32;;;;;;;7.15;6.45;;;;;;;25.33;47.22;101162.53;3584915;40;20081;-45
2021/06/26 08:16:59;;;;;;;6.50;5.60;;;;;;;25.89;45.75;101165.28;3584659;40;20056;-48
2021/06/26 08:19:27;;;;;;;6.72;6.13;;;;;;;25.12;46.59;101165.72;3584476;40;20095;-46
2021/06/26 08:21:54;;;;;;;6.85;6.22;;;;;;;24.00;48.74;101157.97;3584414;40;20060;-49
2021/06/26 08:24:22;;;;;;;6.60;5.88;;;;;;;23.93;51.35;101156.34;3584034;40;20052;-45
2021/06/26 08:26:58;;;;;;;6.50;5.88;;;;;;;24.48;50.45;101155.09;3574483;40;20077;-46
2021/06/26 08:29:26;;;;;;;6.43;5.88;;;;;;;24.66;51.30;101153.78;3574203;40;20069;-45
2021/06/26 08:31:53;;;;;;;7.60;6.95;;;;;;;25.22;47.60;101147.97;3579501;40;20443;-45
2021/06/26 08:34:21;;;;;;;6.88;6.18;;;;;;;25.94;45.02;101162.53;3575339;40;20057;-46
2021/06/26 08:36:50;;;;;;;6.57;6.03;;;;;;;25.58;47.50;101154.81;3574737;40;20089;-51
2021/06/26 08:39:21;;;;;;;6.45;5.95;;;;;;;25.93;46.96;101163.44;3574325;40;20089;-46
2021/06/26 08:41:49;;;;;;;6.50;5.93;;;;;;;26.26;45.06;101156.25;3581122;40;20185;-48
2021/06/26 08:44:17;;;;;;;5.53;5.05;;;;;;;26.46;44.44;101163.53;3583860;40;20111;-46
2021/06/26 08:46:49;;;;;;;5.30;4.82;;;;;;;26.40;44.50;101158.44;3584219;40;20057;-44
2021/06/26 08:49:18;;;;;;;7.60;5.85;;;;;;;26.02;43.30;101168.41;3584347;40;20052;-48
2021/06/26 08:51:45;;;;;;;5.80;5.32;;;;;;;25.25;45.27;101163.63;3587053;39;20437;-46
2021/06/26 08:54:14;;;;;;;5.65;5.15;;;;;;;25.32;45.33;101160.78;3583900;40;20064;-45
2021/06/26 08:56:42;;;;;;;7.07;5.40;;;;;;;25.17;46.09;101155.97;3588068;39;20058;-48
2021/06/26 08:59:09;;;;;;;6.20;5.65;;;;;;;24.21;48.96;101145.25;3592397;39;20066;-46
2021/06/26 09:01:40;;;;;;;5.60;5.10;;;;;;;24.49;44.62;101156.81;3587919;39;20342;-45
2021/06/26 09:04:13;;;;;;;5.90;5.20;;;;;;;24.20;46.39;101154.88;3587078;39;20321;-50
2021/06/26 09:07:00;;;;;;;6.53;5.50;;;;;;;24.21;45.03;101153.97;3587637;39;20310;-47
2021/06/26 09:09:32;;;;;;;6.27;5.20;;;;;;;24.53;45.15;101149.75;3587591;39;20052;-45
2021/06/26 09:12:14;;;;;;;6.20;5.60;;;;;;;25.00;45.65;101155.53;3587394;39;20072;-50
2021/06/26 09:14:44;;;;;;;6.72;6.13;;;;;;;24.79;44.50;101155.19;3594118;39;20458;-47
2021/06/26 09:17:12;;;;;;;6.82;6.13;;;;;;;24.70;44.00;101147.59;3594063;39;20445;-49
2021/06/26 09:19:39;;;;;;;5.82;5.32;;;;;;;25.08;44.99;101153.59;3594004;39;20080;-46
2021/06/26 09:22:12;;;;;;;9.50;5.35;;;;;;;25.44;45.35;101150.88;3593634;39;20083;-52
2021/06/26 09:24:45;;;;;;;5.88;5.28;;;;;;;25.94;43.99;101154.66;3593711;39;20068;-50
2021/06/26 09:27:15;;;;;;;7.82;4.97;;;;;;;25.83;44.87;101148.84;3593189;39;20083;-48
2021/06/26 09:29:50;;;;;;;5.25;4.85;;;;;;;25.61;43.33;101148.63;3594084;39;20088;-48
2021/06/26 09:32:30;;;;;;;8.77;5.32;;;;;;;25.36;46.21;101151.94;3594262;39;20107;-47
2021/06/26 09:34:58;;;;;;;6.47;5.70;;;;;;;26.58;39.75;101149.13;3594078;39;20078;-46
2021/06/26 09:37:34;;;;;;;5.18;4.78;;;;;;;26.48;41.58;101151.19;3594138;39;20108;-51
2021/06/26 09:40:02;;;;;;;6.72;5.30;;;;;;;26.68;40.48;101149.69;3594028;39;20063;-48
2021/06/26 09:42:33;;;;;;;5.03;4.60;;;;;;;27.47;42.19;101146.88;3583849;39;20084;-50
2021/06/26 09:45:05;;;;;;;6.15;5.38;;;;;;;28.22;38.71;101151.00;3583375;40;20064;-52
2021/06/26 09:47:43;;;;;;;5.57;5.13;;;;;;;26.77;40.68;101144.97;3583764;40;20456;-47
2021/06/26 09:50:20;;;;;;;8.68;4.97;;;;;;;27.62;41.25;101138.38;3583770;40;20111;-50
2021/06/26 09:53:05;;;;;;;5.20;4.80;;;;;;;28.24;37.62;101139.50;3583954;40;20422;-49
2021/06/26 09:55:40;;;;;;;6.05;4.63;;;;;;;27.07;39.86;101137.75;3582730;40;20065;-50
2021/06/26 09:58:10;;;;;;;5.13;4.57;;;;;;;27.29;40.71;101144.91;3583898;40;20060;-50
2021/06/26 10:00:41;;;;;;;5.22;4.72;;;;;;;26.62;42.06;101141.09;3583934;40;20707;-50
2021/06/26 10:03:09;;;;;;;7.15;4.43;;;;;;;26.04;44.21;101144.72;3584075;40;20340;-51
2021/06/26 10:05:37;;;;;;;5.30;4.30;;;;;;;26.91;42.18;101145.34;3583895;40;20496;-51
2021/06/26 10:08:06;;;;;;;6.03;4.65;;;;;;;27.91;40.97;101150.44;3583544;40;20402;-46
2021/06/26 10:10:33;;;;;;;5.40;4.90;;;;;;;27.30;37.20;101136.97;3583553;40;20101;-48
2021/06/26 10:13:02;;;;;;;4.55;4.25;;;;;;;27.71;38.68;101137.19;3583613;40;20080;-46
2021/06/26 10:15:32;;;;;;;5.60;4.20;;;;;;;29.02;38.25;101148.56;3583778;40;20249;-45
2021/06/26 10:18:00;;;;;;;4.80;4.40;;;;;;;31.38;32.15;101153.84;3583740;40;20618;-46
2021/06/26 10:20:28;;;;;;;5.47;4.75;;;;;;;33.59;27.33;101163.91;3583910;40;20359;-46
2021/06/26 10:23:01;;;;;;;4.45;4.15;;;;;;;31.83;29.81;101154.94;3583614;40;20060;-46
2021/06/26 10:25:31;;;;;;;4.68;4.20;;;;;;;32.97;29.05;101158.03;3583543;40;20056;-48
2021/06/26 10:28:06;;;;;;;4.38;3.95;;;;;;;36.79;23.83;101170.00;3583572;40;20358;-46
2021/06/26 10:30:33;;;;;;;4.10;3.80;;;;;;;36.28;23.07;101164.97;3583417;40;20092;-46
2021/06/26 10:33:04;;;;;;;4.75;4.10;;;;;;;36.37;24.59;101167.78;3583374;40;20056;-49
2021/06/26 10:35:33;;;;;;;4.30;4.00;;;;;;;36.04;23.25;101160.50;3583306;40;20088;-49
2021/06/26 10:38:04;;;;;;;4.50;4.00;;;;;;;38.16;19.93;101175.06;3583404;40;20499;-47
2021/06/26 10:40:43;;;;;;;4.20;3.90;;;;;;;38.68;19.54;101173.34;3583368;40;20448;-46
2021/06/26 10:43:29;;;;;;;4.35;3.95;;;;;;;37.15;20.47;101160.97;3583419;40;20141;-46
2021/06/26 10:46:10;;;;;;;4.28;3.97;;;;;;;38.71;21.22;101159.72;3583487;40;20116;-46
2021/06/26 10:48:40;;;;;;;4.10;3.60;;;;;;;34.98;22.55;101148.56;3583119;40;20422;-46
2021/06/26 10:51:09;;;;;;;3.90;3.60;;;;;;;35.30;23.88;101143.63;3583312;40;20061;-50
2021/06/26 10:53:37;;;;;;;4.70;4.00;;;;;;;36.08;22.63;101150.47;3583157;40;20040;-47
2021/06/26 10:56:12;;;;;;;4.30;3.92;;;;;;;34.74;23.28;101142.25;3583102;40;20383;-46
2021/06/26 10:58:42;;;;;;;4.57;4.10;;;;;;;32.32;25.43;101129.13;3582998;40;20084;-47
2021/06/26 11:01:23;;;;;;;5.35;4.10;;;;;;;32.33;25.51;101136.13;3582870;40;20104;-47
2021/06/26 11:04:04;;;;;;;4.78;4.38;;;;;;;35.41;23.36;101137.56;3583101;40;20051;-49
2021/06/26 11:06:31;;;;;;;4.70;4.30;;;;;;;37.56;20.27;101149.66;3583186;40;20127;-47
2021/06/26 11:09:10;;;;;;;4.63;4.30;;;;;;;35.22;21.50;101135.31;3584428;40;20064;-48
2021/06/26 11:11:41;;;;;;;6.00;4.28;;;;;;;32.38;25.75;101130.59;3584734;40;20096;-49
2021/06/26 11:14:19;;;;;;;4.60;4.15;;;;;;;32.46;25.18;101133.66;3585088;40;20055;-47
2021/06/26 11:16:53;;;;;;;7.68;4.65;;;;;;;30.40;27.69;101127.16;3584751;40;20128;-46
2021/06/26 11:19:21;;;;;;;4.80;4.03;;;;;;;29.51;29.53;101126.09;3584938;40;20051;-49
2021/06/26 11:21:51;;;;;;;4.30;4.00;;;;;;;28.48;31.06;101119.22;3584780;40;20091;-48